Time;durP1;ratioP1;P1;durP2;ratioP2;P2;SDS_P1;SDS_P2;PMS_P1;PMS_P2;Temp;Humidity;BMP_temperature;BMP_pressure;BME280_temperature;BME280_humidity;BME280_pressure;Samples;Min_cycle;Max_cycle;Signal;HPM_P1;HPM_P2
2022/04/29 00:01:53;;;;;;;;;;;20.40;54.70;;;;;;5046284;28;19916;-69
2022/04/29 00:04:19;;;;;;;;;;;20.50;54.80;;;;;;5029277;28;19952;-69
2022/04/29 00:06:44;;;;;;;;;;;20.40;54.80;;;;;;5047061;28;19974;-69
2022/04/29 00:09:10;;;;;;;;;;;20.50;54.80;;;;;;5044954;28;19916;-69
2022/04/29 00:11:36;;;;;;;;;;;20.40;54.80;;;;;;5045817;28;20360;-69
2022/04/29 00:14:02;;;;;;;;;;;20.40;54.80;;;;;;5045698;28;19916;-69
2022/04/29 00:16:27;;;;;;;;;;;20.40;54.80;;;;;;5046410;28;20283;-69
2022/04/29 00:18:52;;;;;;;;;;;20.40;54.80;;;;;;5045161;28;19920;-69
2022/04/29 00:21:18;;;;;;;;;;;20.50;54.80;;;;;;5045086;28;25333;-69
2022/04/29 00:23:43;;;;;;;;;;;20.40;54.80;;;;;;5045380;28;19913;-69
2022/04/29 00:26:09;;;;;;;;;;;20.40;54.80;;;;;;5045745;28;19962;-69
2022/04/29 00:28:34;;;;;;;;;;;20.40;54.80;;;;;;5046183;28;19935;-69
2022/04/29 00:31:00;;;;;;;;;;;20.40;54.70;;;;;;5046415;28;19913;-69
2022/04/29 00:33:27;;;;;;;;;;;20.40;54.80;;;;;;5045670;28;19913;-69
2022/04/29 00:35:52;;;;;;;;;;;20.40;54.70;;;;;;5046492;28;19963;-69
2022/04/29 00:38:18;;;;;;;;;;;20.40;54.70;;;;;;5045703;28;19908;-67
2022/04/29 00:40:44;;;;;;;;;;;20.40;54.70;;;;;;5044237;28;19923;-69
2022/04/29 00:43:11;;;;;;;;;;;20.40;54.70;;;;;;5028050;28;20443;-69
2022/04/29 00:45:36;;;;;;;;;;;20.40;54.60;;;;;;5047111;28;19921;-69
2022/04/29 00:48:02;;;;;;;;;;;20.40;54.70;;;;;;5045910;28;20485;-69
2022/04/29 00:50:28;;;;;;;;;;;20.40;54.60;;;;;;5045004;28;19913;-67
2022/04/29 00:52:54;;;;;;;;;;;20.40;54.60;;;;;;5045420;28;19913;-69
2022/04/29 00:55:20;;;;;;;;;;;20.40;54.70;;;;;;5045593;28;19921;-69
2022/04/29 00:57:47;;;;;;;;;;;20.40;54.60;;;;;;5045265;28;19913;-69
2022/04/29 01:00:14;;;;;;;;;;;20.40;54.60;;;;;;5044677;28;20367;-69
2022/04/29 01:02:41;;;;;;;;;;;20.40;54.60;;;;;;5045001;28;19908;-69
2022/04/29 01:05:16;;;;;;;;;;;20.40;54.60;;;;;;5044831;28;19917;-67
2022/04/29 01:07:42;;;;;;;;;;;20.40;54.60;;;;;;5045274;28;19962;-69
2022/04/29 01:10:10;;;;;;;;;;;20.40;54.60;;;;;;5042768;28;19917;-69
2022/04/29 01:12:36;;;;;;;;;;;20.30;54.50;;;;;;5046414;28;19935;-69
2022/04/29 01:15:02;;;;;;;;;;;20.30;54.50;;;;;;5044965;28;20327;-69
2022/04/29 01:17:30;;;;;;;;;;;20.40;54.50;;;;;;5045158;28;19955;-70
2022/04/29 01:19:55;;;;;;;;;;;20.30;54.50;;;;;;5044005;28;20323;-69
2022/04/29 01:22:21;;;;;;;;;;;20.30;54.40;;;;;;5045001;28;19909;-69
2022/04/29 01:24:47;;;;;;;;;;;20.40;54.50;;;;;;5044054;28;19917;-69
2022/04/29 01:27:13;;;;;;;;;;;20.30;54.40;;;;;;5045657;28;19920;-69
2022/04/29 01:29:39;;;;;;;;;;;20.30;54.40;;;;;;5043376;28;19913;-69
2022/04/29 01:32:05;;;;;;;;;;;20.40;54.40;;;;;;5044424;28;19924;-69
2022/04/29 01:34:31;;;;;;;;;;;20.30;54.30;;;;;;5044054;28;20313;-69
2022/04/29 01:36:56;;;;;;;;;;;20.30;54.30;;;;;;5028435;28;19932;-69
2022/04/29 01:39:21;;;;;;;;;;;20.30;54.40;;;;;;5043424;28;19917;-69
2022/04/29 01:41:47;;;;;;;;;;;20.30;54.30;;;;;;5044380;28;19924;-69
2022/04/29 01:44:12;;;;;;;;;;;20.30;54.30;;;;;;5044558;28;19920;-69
2022/04/29 01:46:38;;;;;;;;;;;20.30;54.30;;;;;;5027583;28;20575;-69
2022/04/29 01:49:03;;;;;;;;;;;20.30;54.30;;;;;;5043170;28;19913;-69
2022/04/29 01:51:29;;;;;;;;;;;20.30;54.30;;;;;;5044414;28;19916;-69
2022/04/29 01:53:54;;;;;;;;;;;20.30;54.30;;;;;;5044825;28;20406;-69
2022/04/29 01:56:20;;;;;;;;;;;20.30;54.30;;;;;;5045595;28;19939;-69
2022/04/29 01:58:46;;;;;;;;;;;20.30;54.20;;;;;;5042604;28;20699;-69
2022/04/29 02:01:12;;;;;;;;;;;20.30;54.20;;;;;;5043994;28;19916;-69
2022/04/29 02:03:37;;;;;;;;;;;20.30;54.20;;;;;;5045224;28;19923;-69
2022/04/29 02:06:03;;;;;;;;;;;20.30;54.20;;;;;;5045411;28;19920;-69
2022/04/29 02:08:28;;;;;;;;;;;20.20;54.20;;;;;;5043194;28;19908;-69
2022/04/29 02:10:54;;;;;;;;;;;20.20;54.20;;;;;;5044944;28;19913;-69
2022/04/29 02:13:20;;;;;;;;;;;20.20;54.80;;;;;;5043664;28;19917;-69
2022/04/29 02:15:46;;;;;;;;;;;20.20;54.20;;;;;;5044200;28;19915;-69
2022/04/29 02:18:12;;;;;;;;;;;20.20;54.20;;;;;;5045495;28;19920;-69
2022/04/29 02:20:37;;;;;;;;;;;20.20;54.20;;;;;;5045028;28;20184;-69
2022/04/29 02:23:03;;;;;;;;;;;20.20;54.20;;;;;;5043835;28;19943;-69
2022/04/29 02:25:28;;;;;;;;;;;20.20;54.20;;;;;;5045350;28;19917;-69
2022/04/29 02:27:53;;;;;;;;;;;20.20;54.20;;;;;;5045528;28;19913;-69
2022/04/29 02:30:19;;;;;;;;;;;20.20;54.20;;;;;;5044650;28;19940;-69
2022/04/29 02:32:44;;;;;;;;;;;20.20;54.20;;;;;;5043554;28;20444;-69
2022/04/29 02:35:10;;;;;;;;;;;20.20;54.10;;;;;;5044986;28;20002;-69
2022/04/29 02:37:36;;;;;;;;;;;20.20;54.10;;;;;;5043667;28;19916;-69
2022/04/29 02:40:01;;;;;;;;;;;20.20;54.10;;;;;;5042874;28;19909;-67
2022/04/29 02:42:28;;;;;;;;;;;20.20;54.20;;;;;;5043204;28;20304;-69
2022/04/29 02:44:53;;;;;;;;;;;20.20;54.10;;;;;;5027046;28;19928;-69
2022/04/29 02:47:19;;;;;;;;;;;20.20;54.10;;;;;;5044182;28;20300;-69
2022/04/29 02:49:44;;;;;;;;;;;20.20;54.10;;;;;;5038227;28;19919;-69
2022/04/29 02:52:10;;;;;;;;;;;20.20;54.10;;;;;;5043986;28;19909;-69
2022/04/29 02:54:36;;;;;;;;;;;20.20;54.10;;;;;;5044298;28;19909;-69
2022/04/29 02:57:02;;;;;;;;;;;20.20;54.00;;;;;;5043128;28;19919;-70
2022/04/29 02:59:27;;;;;;;;;;;20.20;54.00;;;;;;5042759;28;19917;-69
2022/04/29 03:01:52;;;;;;;;;;;20.20;54.00;;;;;;5044648;28;20391;-69
2022/04/29 03:04:18;;;;;;;;;;;20.10;54.00;;;;;;5042825;28;19919;-69
2022/04/29 03:06:43;;;;;;;;;;;20.10;53.90;;;;;;5042058;28;19913;-69
2022/04/29 03:09:09;;;;;;;;;;;20.10;53.90;;;;;;5041868;28;19917;-69
2022/04/29 03:11:34;;;;;;;;;;;20.10;53.90;;;;;;5042964;28;19913;-70
2022/04/29 03:14:00;;;;;;;;;;;20.10;53.90;;;;;;5043253;28;19912;-69
2022/04/29 03:16:25;;;;;;;;;;;20.10;53.90;;;;;;5043420;28;19948;-69
2022/04/29 03:18:51;;;;;;;;;;;20.10;53.90;;;;;;5041601;28;19925;-69
2022/04/29 03:21:18;;;;;;;;;;;20.10;53.90;;;;;;5026451;28;19916;-69
2022/04/29 03:23:45;;;;;;;;;;;20.10;53.90;;;;;;5042709;28;20367;-69
2022/04/29 03:26:11;;;;;;;;;;;20.10;53.90;;;;;;5043208;28;19913;-69
2022/04/29 03:28:36;;;;;;;;;;;20.10;53.90;;;;;;5041789;28;20639;-70
2022/04/29 03:31:02;;;;;;;;;;;20.10;53.80;;;;;;5043959;28;19917;-70
2022/04/29 03:33:28;;;;;;;;;;;20.10;53.80;;;;;;5044751;28;19913;-69
2022/04/29 03:35:53;;;;;;;;;;;20.10;53.80;;;;;;5048524;28;19919;-69
2022/04/29 03:38:19;;;;;;;;;;;20.10;53.80;;;;;;5048357;28;19909;-68
2022/04/29 03:40:44;;;;;;;;;;;20.10;53.90;;;;;;5050033;28;19919;-69
2022/04/29 03:43:12;;;;;;;;;;;20.00;53.80;;;;;;5053359;28;19909;-70
2022/04/29 03:45:37;;;;;;;;;;;20.00;53.80;;;;;;5050204;28;19923;-69
2022/04/29 03:48:03;;;;;;;;;;;20.00;53.80;;;;;;5050912;28;19908;-70
2022/04/29 03:50:29;;;;;;;;;;;20.00;53.80;;;;;;5049630;28;19917;-68
2022/04/29 03:52:55;;;;;;;;;;;20.00;53.80;;;;;;5051341;28;19915;-69
2022/04/29 03:55:21;;;;;;;;;;;20.00;53.80;;;;;;5047196;28;19917;-69
2022/04/29 03:57:47;;;;;;;;;;;20.00;53.90;;;;;;5047015;28;20556;-69
2022/04/29 04:00:13;;;;;;;;;;;20.00;53.80;;;;;;5046040;28;20393;-70
2022/04/29 04:02:39;;;;;;;;;;;20.00;53.90;;;;;;5045836;28;19919;-69
2022/04/29 04:05:04;;;;;;;;;;;20.00;53.90;;;;;;5046528;28;20525;-69
2022/04/29 04:07:30;;;;;;;;;;;20.00;53.90;;;;;;5045990;28;20291;-69
2022/04/29 04:09:55;;;;;;;;;;;20.00;53.90;;;;;;5047036;28;20429;-69
2022/04/29 04:12:20;;;;;;;;;;;20.00;53.80;;;;;;5046213;28;19920;-70
2022/04/29 04:14:46;;;;;;;;;;;20.00;53.80;;;;;;5048308;28;19913;-69
2022/04/29 04:17:11;;;;;;;;;;;20.00;53.80;;;;;;5045531;28;20689;-69
2022/04/29 04:19:37;;;;;;;;;;;19.90;53.70;;;;;;5028328;28;19919;-70
2022/04/29 04:22:02;;;;;;;;;;;20.00;53.80;;;;;;5029382;28;19956;-69
2022/04/29 04:24:28;;;;;;;;;;;20.00;53.70;;;;;;5047351;28;20007;-69
2022/04/29 04:26:54;;;;;;;;;;;20.00;53.80;;;;;;5045759;28;19935;-71
2022/04/29 04:29:19;;;;;;;;;;;20.00;53.80;;;;;;5045694;28;20038;-72
2022/04/29 04:31:45;;;;;;;;;;;20.00;53.90;;;;;;5045348;28;19917;-70
2022/04/29 04:36:54;;;;;;;;;;;20.00;54.00;;;;;;5027383;28;19963;-70
2022/04/29 04:39:20;;;;;;;;;;;20.00;54.10;;;;;;5025671;28;19909;-70
2022/04/29 04:41:46;;;;;;;;;;;20.00;54.20;;;;;;5045660;28;19908;-69
2022/04/29 04:44:12;;;;;;;;;;;20.00;54.40;;;;;;5045771;28;19913;-70
2022/04/29 04:46:38;;;;;;;;;;;20.00;54.60;;;;;;5033652;28;19913;-70
2022/04/29 04:49:03;;;;;;;;;;;20.00;54.80;;;;;;5044063;28;19916;-71
2022/04/29 04:51:29;;;;;;;;;;;20.00;54.90;;;;;;5045469;28;19913;-70
2022/04/29 04:53:54;;;;;;;;;;;20.00;54.90;;;;;;5046492;28;19909;-71
2022/04/29 04:56:20;;;;;;;;;;;20.00;55.10;;;;;;5045898;28;19913;-67
2022/04/29 04:58:45;;;;;;;;;;;20.00;55.30;;;;;;5044335;28;20458;-70
2022/04/29 05:01:11;;;;;;;;;;;20.00;55.30;;;;;;5044389;28;19954;-66
2022/04/29 05:03:36;;;;;;;;;;;20.00;55.40;;;;;;5044808;28;19921;-68
2022/04/29 05:06:02;;;;;;;;;;;20.00;55.50;;;;;;5046912;28;19919;-67
2022/04/29 05:08:27;;;;;;;;;;;20.00;55.60;;;;;;5028023;28;19909;-64
2022/04/29 05:10:53;;;;;;;;;;;20.00;55.40;;;;;;5046394;28;20073;-68
2022/04/29 05:13:18;;;;;;;;;;;20.00;55.30;;;;;;5056518;22;19925;-51
2022/04/29 05:15:44;;;;;;;;;;;20.00;55.30;;;;;;5045133;28;20072;-53
2022/04/29 05:18:09;;;;;;;;;;;20.00;55.60;;;;;;5045123;28;19912;-52
2022/04/29 05:20:34;;;;;;;;;;;20.00;55.70;;;;;;5044022;28;19921;-53
2022/04/29 05:23:00;;;;;;;;;;;20.00;55.60;;;;;;5045103;28;20603;-53
2022/04/29 05:25:25;;;;;;;;;;;20.00;55.50;;;;;;5041827;28;19917;-55
2022/04/29 05:27:51;;;;;;;;;;;20.00;55.70;;;;;;5039839;28;19912;-53
2022/04/29 05:30:16;;;;;;;;;;;20.10;56.10;;;;;;5043741;28;19913;-54
2022/04/29 05:32:42;;;;;;;;;;;20.10;56.20;;;;;;5044793;28;20611;-54
2022/04/29 05:35:08;;;;;;;;;;;20.10;56.10;;;;;;5043254;28;19924;-52
2022/04/29 05:37:34;;;;;;;;;;;20.10;56.50;;;;;;5045081;28;19994;-55
2022/04/29 05:42:44;;;;;;;;;;;20.20;56.50;;;;;;5044300;28;19939;-53
2022/04/29 05:45:09;;;;;;;;;;;20.10;57.10;;;;;;5044739;28;19916;-55
2022/04/29 05:47:35;;;;;;;;;;;20.10;57.10;;;;;;5044537;28;19943;-53
2022/04/29 05:50:00;;;;;;;;;;;20.00;56.50;;;;;;5044215;28;19920;-55
2022/04/29 05:52:26;;;;;;;;;;;20.00;56.60;;;;;;5044959;28;20428;-54
2022/04/29 05:54:51;;;;;;;;;;;20.00;56.20;;;;;;5044744;28;19932;-55
2022/04/29 05:57:17;;;;;;;;;;;20.00;57.00;;;;;;5044420;28;19936;-53
2022/04/29 05:59:42;;;;;;;;;;;20.00;57.20;;;;;;5043915;28;20289;-55
2022/04/29 06:02:08;;;;;;;;;;;20.00;56.90;;;;;;5043800;28;19916;-55
2022/04/29 06:04:34;;;;;;;;;;;20.10;56.80;;;;;;5042842;28;19916;-51
2022/04/29 06:06:59;;;;;;;;;;;20.10;56.50;;;;;;5044956;28;19974;-53
2022/04/29 06:09:25;;;;;;;;;;;20.10;56.40;;;;;;5044100;28;19912;-54
2022/04/29 06:11:51;;;;;;;;;;;20.10;56.30;;;;;;5044151;28;19913;-52
2022/04/29 06:14:16;;;;;;;;;;;20.10;56.00;;;;;;5044460;28;19927;-52
2022/04/29 06:16:43;;;;;;;;;;;20.00;55.90;;;;;;5044264;28;20336;-52
2022/04/29 06:19:08;;;;;;;;;;;20.00;56.20;;;;;;5043462;28;19945;-52
2022/04/29 06:21:34;;;;;;;;;;;20.00;56.90;;;;;;5044068;28;20579;-48
2022/04/29 06:23:59;;;;;;;;;;;20.10;57.00;;;;;;5044358;28;19962;-52
2022/04/29 06:26:25;;;;;;;;;;;20.10;56.50;;;;;;5043927;28;19925;-53
2022/04/29 06:28:50;;;;;;;;;;;20.10;56.20;;;;;;5043565;28;20656;-52
2022/04/29 06:31:16;;;;;;;;;;;20.10;56.20;;;;;;5043804;28;19928;-53
2022/04/29 06:33:41;;;;;;;;;;;20.10;56.20;;;;;;5042248;28;19916;-53
2022/04/29 06:36:07;;;;;;;;;;;20.20;56.10;;;;;;5044345;28;19928;-52
2022/04/29 06:38:32;;;;;;;;;;;20.10;56.00;;;;;;5044701;28;19962;-53
2022/04/29 06:40:58;;;;;;;;;;;20.10;56.10;;;;;;5044908;28;19913;-52
2022/04/29 06:43:23;;;;;;;;;;;20.10;56.10;;;;;;5044746;28;19963;-52
2022/04/29 06:45:48;;;;;;;;;;;20.20;56.20;;;;;;5044488;28;19944;-54
2022/04/29 06:48:14;;;;;;;;;;;20.10;56.10;;;;;;5044338;28;20069;-54
2022/04/29 06:50:40;;;;;;;;;;;20.10;56.10;;;;;;5044291;28;19913;-55
2022/04/29 06:53:05;;;;;;;;;;;20.10;56.20;;;;;;5044205;28;19919;-52
2022/04/29 06:55:31;;;;;;;;;;;20.10;56.10;;;;;;5043642;28;19917;-52
2022/04/29 06:57:56;;;;;;;;;;;20.10;56.10;;;;;;5043935;28;19920;-54
2022/04/29 07:00:22;;;;;;;;;;;20.10;56.00;;;;;;5042994;28;19913;-52
2022/04/29 07:02:48;;;;;;;;;;;20.10;56.10;;;;;;5048823;28;19913;-52
2022/04/29 07:05:13;;;;;;;;;;;20.10;56.10;;;;;;5043089;28;19928;-55
2022/04/29 07:07:39;;;;;;;;;;;20.10;56.20;;;;;;5043335;28;19966;-53
2022/04/29 07:10:04;;;;;;;;;;;20.10;56.30;;;;;;5043906;28;19928;-55
2022/04/29 07:12:33;;;;;;;;;;;20.10;56.30;;;;;;5046975;28;20496;-54
2022/04/29 07:14:59;;;;;;;;;;;20.10;56.20;;;;;;5047394;28;19970;-55
2022/04/29 07:17:24;;;;;;;;;;;20.10;56.20;;;;;;5046841;28;20044;-53
2022/04/29 07:19:53;;;;;;;;;;;20.10;56.20;;;;;;5046858;28;20281;-54
2022/04/29 07:22:19;;;;;;;;;;;20.10;56.30;;;;;;5047347;28;19913;-55
2022/04/29 07:24:44;;;;;;;;;;;20.10;56.20;;;;;;5061084;28;19927;-55
2022/04/29 07:27:10;;;;;;;;;;;20.10;56.20;;;;;;5066243;28;19961;-54
2022/04/29 07:29:35;;;;;;;;;;;20.10;56.20;;;;;;5046677;28;19913;-54
2022/04/29 07:32:01;;;;;;;;;;;20.10;56.20;;;;;;5047241;28;19917;-55
2022/04/29 07:42:38;;;;;;;;;;;20.10;56.20;;;;;;5046904;28;20289;-50
2022/04/29 07:45:04;;;;;;;;;;;20.00;56.10;;;;;;5047347;28;19917;-53
2022/04/29 07:47:29;;;;;;;;;;;20.10;56.20;;;;;;5045226;28;20394;-51
2022/04/29 07:49:55;;;;;;;;;;;20.10;56.20;;;;;;5046274;28;19932;-52
2022/04/29 07:52:20;;;;;;;;;;;20.10;56.20;;;;;;5046896;28;19939;-51
2022/04/29 07:54:45;;;;;;;;;;;20.10;56.10;;;;;;5045133;28;19913;-55
2022/04/29 07:57:11;;;;;;;;;;;20.10;56.10;;;;;;5045857;28;20282;-52
2022/04/29 07:59:37;;;;;;;;;;;20.10;56.10;;;;;;5044633;28;19998;-53
2022/04/29 08:02:03;;;;;;;;;;;20.10;56.10;;;;;;5046518;28;19951;-53
2022/04/29 08:04:28;;;;;;;;;;;20.10;56.10;;;;;;5046745;28;19952;-54
2022/04/29 08:06:54;;;;;;;;;;;20.10;56.10;;;;;;5046580;28;19972;-54
2022/04/29 08:09:20;;;;;;;;;;;20.10;56.10;;;;;;5045723;28;19913;-53
2022/04/29 08:11:45;;;;;;;;;;;20.10;56.20;;;;;;5046092;28;19939;-55
2022/04/29 08:14:11;;;;;;;;;;;20.10;56.10;;;;;;5045809;28;20409;-52
2022/04/29 08:16:36;;;;;;;;;;;20.10;56.10;;;;;;5046192;28;19916;-54
2022/04/29 08:19:02;;;;;;;;;;;20.10;56.10;;;;;;5045776;28;19920;-53
2022/04/29 08:21:27;;;;;;;;;;;20.10;56.10;;;;;;5046225;28;19913;-54
2022/04/29 08:23:53;;;;;;;;;;;20.10;56.10;;;;;;5045644;28;19948;-53
2022/04/29 08:26:18;;;;;;;;;;;20.10;56.10;;;;;;5045979;28;19928;-55
2022/04/29 08:28:44;;;;;;;;;;;20.10;56.20;;;;;;5045127;28;20267;-54
2022/04/29 08:31:09;;;;;;;;;;;20.10;56.10;;;;;;5046052;28;19921;-52
2022/04/29 08:33:35;;;;;;;;;;;20.10;56.10;;;;;;5046834;28;19967;-53
2022/04/29 08:36:00;;;;;;;;;;;20.10;56.10;;;;;;5046543;28;20122;-53
2022/04/29 08:38:26;;;;;;;;;;;20.00;56.00;;;;;;5049700;28;19917;-54
2022/04/29 08:40:52;;;;;;;;;;;20.00;56.10;;;;;;5047339;28;20429;-53
2022/04/29 08:43:19;;;;;;;;;;;20.10;56.20;;;;;;5044797;28;19920;-54
2022/04/29 08:45:45;;;;;;;;;;;20.10;56.20;;;;;;5045583;28;20421;-52
2022/04/29 08:48:10;;;;;;;;;;;20.10;56.20;;;;;;5045760;28;19920;-52
2022/04/29 08:50:36;;;;;;;;;;;20.10;56.20;;;;;;5043634;28;19932;-54
2022/04/29 08:53:01;;;;;;;;;;;20.00;56.70;;;;;;5045877;28;19913;-52
2022/04/29 09:01:02;;;;;;;;;;;20.00;56.20;;;;;;5045115;28;20302;-55
2022/04/29 09:03:29;;;;;;;;;;;20.00;56.10;;;;;;5045429;28;19913;-52
2022/04/29 09:05:54;;;;;;;;;;;20.00;56.10;;;;;;5045343;28;19928;-53
2022/04/29 09:08:20;;;;;;;;;;;20.00;56.00;;;;;;5042074;28;19916;-52
2022/04/29 09:10:49;;;;;;;;;;;20.00;56.00;;;;;;5043448;28;19924;-52
2022/04/29 09:13:16;;;;;;;;;;;20.00;56.00;;;;;;5044750;28;19924;-52
2022/04/29 09:15:48;;;;;;;;;;;20.00;56.00;;;;;;5045570;28;19920;-52
2022/04/29 09:18:14;;;;;;;;;;;20.00;56.00;;;;;;5043192;28;19920;-50
2022/04/29 09:20:39;;;;;;;;;;;20.00;55.90;;;;;;5044199;28;19917;-49
2022/04/29 09:23:05;;;;;;;;;;;20.00;55.90;;;;;;5045506;28;19919;-51
2022/04/29 09:25:36;;;;;;;;;;;20.00;55.90;;;;;;5044535;28;20397;-50
2022/04/29 09:28:03;;;;;;;;;;;20.00;55.90;;;;;;5033494;28;19913;-52
2022/04/29 09:30:31;;;;;;;;;;;20.00;56.00;;;;;;5043099;28;19913;-51
2022/04/29 09:32:56;;;;;;;;;;;20.00;55.90;;;;;;5044967;28;19955;-54
2022/04/29 09:35:37;;;;;;;;;;;20.00;55.90;;;;;;5044862;28;19913;-53
2022/04/29 09:40:47;;;;;;;;;;;20.00;56.00;;;;;;5044264;28;19924;-53
2022/04/29 09:43:13;;;;;;;;;;;20.00;55.90;;;;;;5041377;28;19913;-52
2022/04/29 09:45:38;;;;;;;;;;;20.00;55.90;;;;;;5044256;28;20386;-52
2022/04/29 09:48:04;;;;;;;;;;;20.00;55.80;;;;;;5044671;28;19919;-52
2022/04/29 09:50:46;;;;;;;;;;;20.10;55.80;;;;;;5040086;28;19912;-51
2022/04/29 09:53:14;;;;;;;;;;;20.10;55.90;;;;;;5063452;28;20008;-52
2022/04/29 09:55:40;;;;;;;;;;;20.10;55.90;;;;;;5054023;28;19913;-52
2022/04/29 09:58:09;;;;;;;;;;;20.10;55.80;;;;;;5044307;28;19944;-55
2022/04/29 10:00:34;;;;;;;;;;;20.10;55.80;;;;;;5043684;28;19913;-52
2022/04/29 10:03:03;;;;;;;;;;;20.10;55.90;;;;;;5043815;28;19920;-53
2022/04/29 10:05:29;;;;;;;;;;;20.10;55.80;;;;;;5044226;28;19924;-53
2022/04/29 10:07:55;;;;;;;;;;;20.10;55.90;;;;;;5026282;28;19921;-56
2022/04/29 10:10:20;;;;;;;;;;;20.10;55.90;;;;;;5041861;28;19924;-53
2022/04/29 10:12:47;;;;;;;;;;;20.10;55.80;;;;;;5042403;28;19917;-53
2022/04/29 10:15:17;;;;;;;;;;;20.10;55.80;;;;;;5044272;28;19974;-52
2022/04/29 10:23:10;;;;;;;;;;;20.10;55.80;;;;;;5044113;28;20454;-55
2022/04/29 10:25:38;;;;;;;;;;;20.10;55.80;;;;;;5043798;28;19917;-52
2022/04/29 10:28:04;;;;;;;;;;;20.10;55.80;;;;;;5042471;28;19952;-53
2022/04/29 10:30:30;;;;;;;;;;;20.10;55.70;;;;;;5043376;28;19955;-53
2022/04/29 10:33:00;;;;;;;;;;;20.10;55.70;;;;;;5044247;28;19913;-53
2022/04/29 10:35:43;;;;;;;;;;;20.10;55.80;;;;;;5044038;28;19917;-54
2022/04/29 10:38:18;;;;;;;;;;;20.10;55.70;;;;;;5043392;28;19940;-52
2022/04/29 10:40:44;;;;;;;;;;;20.10;55.70;;;;;;5043641;28;19913;-50
2022/04/29 10:43:09;;;;;;;;;;;20.10;55.70;;;;;;5042731;28;20054;-52
2022/04/29 10:45:36;;;;;;;;;;;20.10;55.80;;;;;;5042986;28;20455;-52
2022/04/29 10:48:20;;;;;;;;;;;20.10;55.70;;;;;;5043790;28;19963;-51
2022/04/29 10:50:45;;;;;;;;;;;20.10;55.70;;;;;;5042755;28;19917;-52
2022/04/29 10:53:11;;;;;;;;;;;20.10;55.70;;;;;;5043632;28;19920;-53
2022/04/29 10:55:36;;;;;;;;;;;20.10;55.70;;;;;;5043732;28;19916;-54
2022/04/29 10:58:17;;;;;;;;;;;20.10;55.70;;;;;;5042657;28;20336;-55
2022/04/29 11:00:52;;;;;;;;;;;20.10;55.70;;;;;;5042433;28;20417;-50
2022/04/29 11:03:37;;;;;;;;;;;20.10;55.70;;;;;;5042222;28;19974;-53
2022/04/29 11:06:06;;;;;;;;;;;20.10;55.70;;;;;;5041133;28;19923;-53
2022/04/29 11:08:32;;;;;;;;;;;20.10;55.70;;;;;;5042890;28;19920;-53
2022/04/29 11:10:58;;;;;;;;;;;20.10;55.70;;;;;;5041960;28;19913;-52
2022/04/29 11:13:24;;;;;;;;;;;20.10;55.70;;;;;;5043138;28;20003;-52
2022/04/29 11:15:49;;;;;;;;;;;20.10;55.60;;;;;;5041921;28;19988;-52
2022/04/29 11:18:23;;;;;;;;;;;20.10;55.60;;;;;;5043444;28;20000;-52
2022/04/29 11:20:57;;;;;;;;;;;20.10;55.60;;;;;;5043195;28;19966;-55
2022/04/29 11:26:10;;;;;;;;;;;20.10;55.60;;;;;;5042758;28;20002;-52
2022/04/29 11:28:35;;;;;;;;;;;20.10;55.60;;;;;;5043350;28;20560;-53
2022/04/29 11:31:04;;;;;;;;;;;20.20;55.60;;;;;;5043039;28;19921;-54
2022/04/29 11:33:30;;;;;;;;;;;20.20;55.60;;;;;;5043285;28;20425;-53
2022/04/29 11:36:03;;;;;;;;;;;20.20;55.60;;;;;;5043315;28;19912;-55
2022/04/29 11:38:29;;;;;;;;;;;20.20;55.50;;;;;;5040733;28;19927;-53
2022/04/29 11:40:54;;;;;;;;;;;20.20;55.60;;;;;;5043291;28;19916;-52
2022/04/29 11:43:23;;;;;;;;;;;20.20;55.60;;;;;;5043308;28;19959;-54
2022/04/29 11:45:58;;;;;;;;;;;20.20;55.60;;;;;;5041802;28;20266;-52
2022/04/29 11:48:23;;;;;;;;;;;20.20;55.60;;;;;;5042861;28;19997;-55
2022/04/29 11:50:48;;;;;;;;;;;20.20;55.60;;;;;;5043423;28;19913;-52
2022/04/29 11:53:14;;;;;;;;;;;20.20;55.50;;;;;;5042714;28;19917;-54
2022/04/29 11:55:39;;;;;;;;;;;20.20;55.60;;;;;;5047687;28;20289;-54
2022/04/29 11:58:05;;;;;;;;;;;20.20;55.50;;;;;;5048277;28;19913;-54
2022/04/29 12:00:31;;;;;;;;;;;20.20;55.50;;;;;;5047826;28;20034;-52
2022/04/29 12:02:57;;;;;;;;;;;20.20;55.40;;;;;;5047372;28;20016;-52
2022/04/29 12:05:28;;;;;;;;;;;20.20;55.40;;;;;;5046906;28;19944;-53
2022/04/29 12:07:54;;;;;;;;;;;20.20;55.40;;;;;;5046289;28;19963;-56
2022/04/29 12:10:19;;;;;;;;;;;20.20;55.40;;;;;;5044540;28;19917;-54
2022/04/29 12:12:48;;;;;;;;;;;20.20;55.40;;;;;;5046153;28;19917;-53
2022/04/29 12:15:19;;;;;;;;;;;20.30;55.40;;;;;;5046217;28;19920;-53
2022/04/29 12:17:45;;;;;;;;;;;20.30;55.40;;;;;;5046329;28;19916;-53
2022/04/29 12:20:17;;;;;;;;;;;20.30;55.30;;;;;;5045963;28;20377;-52
2022/04/29 12:22:43;;;;;;;;;;;20.30;55.30;;;;;;5046541;28;19988;-52
2022/04/29 12:25:20;;;;;;;;;;;20.30;55.20;;;;;;5046231;28;20001;-53
2022/04/29 12:27:46;;;;;;;;;;;20.30;55.20;;;;;;5045652;28;20433;-52
2022/04/29 12:36:31;;;;;;;;;;;20.30;55.30;;;;;;5046064;28;19995;-52
2022/04/29 12:39:03;;;;;;;;;;;20.30;55.30;;;;;;5001590;28;19912;-52
2022/04/29 12:41:29;;;;;;;;;;;20.30;55.30;;;;;;5045861;28;19974;-52
2022/04/29 12:44:08;;;;;;;;;;;20.40;55.30;;;;;;5045829;28;20088;-54
2022/04/29 12:46:33;;;;;;;;;;;20.30;55.30;;;;;;5044359;28;19971;-54
2022/04/29 12:48:59;;;;;;;;;;;20.40;55.30;;;;;;5045081;28;20011;-53
2022/04/29 12:51:25;;;;;;;;;;;20.40;55.30;;;;;;5045205;28;20344;-54
2022/04/29 12:53:51;;;;;;;;;;;20.40;55.30;;;;;;5045505;28;19913;-52
2022/04/29 12:56:26;;;;;;;;;;;20.40;55.40;;;;;;5045768;28;19913;-52
2022/04/29 12:58:52;;;;;;;;;;;20.40;55.30;;;;;;5044463;28;19923;-54
2022/04/29 13:01:17;;;;;;;;;;;20.40;55.50;;;;;;5045621;28;19923;-54
2022/04/29 13:03:47;;;;;;;;;;;20.40;55.40;;;;;;5045326;28;20545;-52
2022/04/29 13:06:12;;;;;;;;;;;20.40;55.50;;;;;;5044796;28;19916;-54
2022/04/29 13:08:38;;;;;;;;;;;20.40;55.50;;;;;;5044675;28;19930;-53
2022/04/29 13:11:04;;;;;;;;;;;20.40;55.50;;;;;;5046253;28;20274;-52
2022/04/29 13:13:29;;;;;;;;;;;20.40;55.50;;;;;;5044879;28;19927;-54
2022/04/29 13:15:55;;;;;;;;;;;20.40;55.50;;;;;;5045162;28;19975;-53
2022/04/29 13:18:20;;;;;;;;;;;20.40;55.50;;;;;;5044739;28;19913;-52
2022/04/29 13:20:46;;;;;;;;;;;20.40;55.50;;;;;;5043682;28;19913;-53
2022/04/29 13:23:11;;;;;;;;;;;20.40;55.50;;;;;;5045257;28;19920;-52
2022/04/29 13:25:37;;;;;;;;;;;20.40;55.50;;;;;;5045864;28;20567;-53
2022/04/29 13:28:03;;;;;;;;;;;20.40;56.20;;;;;;5027341;28;20580;-53
2022/04/29 13:30:28;;;;;;;;;;;20.40;55.50;;;;;;5044751;28;19925;-55
2022/04/29 13:32:54;;;;;;;;;;;20.40;55.60;;;;;;5046688;28;20562;-52
2022/04/29 13:35:19;;;;;;;;;;;20.50;55.60;;;;;;5045268;28;19913;-53
2022/04/29 13:37:45;;;;;;;;;;;20.40;55.50;;;;;;5045195;28;20603;-52
2022/04/29 13:40:10;;;;;;;;;;;20.40;55.50;;;;;;5044551;28;19920;-52
2022/04/29 13:42:36;;;;;;;;;;;20.50;55.60;;;;;;5045458;28;20465;-53
2022/04/29 13:45:02;;;;;;;;;;;20.40;55.50;;;;;;5044947;28;20115;-51
2022/04/29 13:47:28;;;;;;;;;;;20.40;55.50;;;;;;5045186;28;20011;-52
2022/04/29 13:49:54;;;;;;;;;;;20.50;55.50;;;;;;5045830;28;20000;-52
2022/04/29 13:55:03;;;;;;;;;;;20.50;55.60;;;;;;5045257;28;20054;-51
2022/04/29 13:57:29;;;;;;;;;;;20.50;55.70;;;;;;5044576;28;20379;-53
2022/04/29 13:59:54;;;;;;;;;;;20.40;55.60;;;;;;5044883;28;20604;-52
2022/04/29 14:02:20;;;;;;;;;;;20.50;55.60;;;;;;5044462;28;19916;-54
2022/04/29 14:04:45;;;;;;;;;;;20.40;55.60;;;;;;5043149;28;19913;-53
2022/04/29 14:07:13;;;;;;;;;;;20.50;55.60;;;;;;5044555;28;19919;-51
2022/04/29 14:09:39;;;;;;;;;;;20.50;55.60;;;;;;5043940;28;19913;-52
2022/04/29 14:12:04;;;;;;;;;;;20.50;55.70;;;;;;5044746;28;19913;-53
2022/04/29 14:14:30;;;;;;;;;;;20.50;55.70;;;;;;5043819;28;19921;-52
2022/04/29 14:16:55;;;;;;;;;;;20.50;55.60;;;;;;5044009;28;19977;-51
2022/04/29 14:19:22;;;;;;;;;;;20.40;55.50;;;;;;5044067;28;19913;-54
2022/04/29 14:21:47;;;;;;;;;;;20.50;55.60;;;;;;5039688;28;20055;-53
2022/04/29 14:24:13;;;;;;;;;;;20.40;55.60;;;;;;5041944;28;20332;-52
2022/04/29 14:26:38;;;;;;;;;;;20.40;55.60;;;;;;5043698;28;19920;-52
2022/04/29 14:29:04;;;;;;;;;;;20.40;55.70;;;;;;5043938;28;20584;-52
2022/04/29 14:31:30;;;;;;;;;;;20.40;55.60;;;;;;5044016;28;19912;-54
2022/04/29 14:33:58;;;;;;;;;;;20.50;55.70;;;;;;5044515;28;19970;-53
2022/04/29 14:36:26;;;;;;;;;;;20.40;55.70;;;;;;5042561;28;19920;-53
2022/04/29 14:38:52;;;;;;;;;;;20.40;55.70;;;;;;5043133;28;19920;-52
2022/04/29 14:41:17;;;;;;;;;;;20.50;55.80;;;;;;5044097;28;19913;-52
2022/04/29 14:43:42;;;;;;;;;;;20.40;55.70;;;;;;5044171;28;19920;-54
2022/04/29 14:46:08;;;;;;;;;;;20.50;55.70;;;;;;5043794;28;19917;-52
2022/04/29 14:48:33;;;;;;;;;;;20.40;55.70;;;;;;5041402;28;20358;-55
2022/04/29 14:50:59;;;;;;;;;;;20.40;55.70;;;;;;5043622;28;19935;-54